Time;durP1;ratioP1;P1;durP2;ratioP2;P2;SDS_P1;SDS_P2;PMS_P1;PMS_P2;Temp;Humidity;BMP_temperature;BMP_pressure;BME280_temperature;BME280_humidity;BME280_pressure;Samples;Min_cycle;Max_cycle;Signal;HPM_P1;HPM_P2
2021/08/03 10:11:19;;;;;;;9.33;4.90;;;;;;;26.25;53.95;100512.85;125081;1102;104160;-77
2021/08/03 10:14:01;;;;;;;9.73;4.50;;;;;;;26.32;54.09;100519.83;125088;1102;104147;-76
2021/08/03 10:16:49;;;;;;;8.03;4.43;;;;;;;26.37;53.56;100514.31;124976;1102;104169;-78
2021/08/03 10:19:28;;;;;;;8.70;4.67;;;;;;;26.43;54.15;100519.52;124856;1102;104197;-78
2021/08/03 10:29:23;;;;;;;8.43;4.30;;;;;;;26.49;53.53;100518.42;124648;1109;104370;-78
2021/08/03 10:31:58;;;;;;;7.40;4.40;;;;;;;26.36;53.28;100523.30;124829;1105;104181;-79
2021/08/03 10:35:00;;;;;;;10.88;4.12;;;;;;;26.34;53.29;100517.97;124905;1105;105006;-77
2021/08/03 10:37:43;;;;;;;;;;;;;;;26.44;53.35;100531.14;124907;1105;104342;-77
2021/08/03 10:40:14;;;;;;;7.20;3.90;;;;;;;26.46;52.92;100524.80;124876;1105;104176;-77
2021/08/03 10:43:18;;;;;;;4.87;3.67;;;;;;;26.46;51.19;100532.88;124865;1105;105700;-75
2021/08/03 10:46:29;;;;;;;6.20;3.60;;;;;;;26.42;50.18;100536.57;124951;1105;104325;-75
2021/08/03 10:49:06;;;;;;;8.10;3.70;;;;;;;26.46;51.26;100546.33;125014;1102;104143;-77
2021/08/03 10:51:42;;;;;;;7.20;3.50;;;;;;;26.46;51.83;100537.34;124872;1102;104139;-76
2021/08/03 10:54:20;;;;;;;7.80;3.73;;;;;;;26.53;52.31;100537.12;125087;1102;104197;-77
2021/08/03 10:57:14;;;;;;;5.53;3.60;;;;;;;26.58;52.19;100539.67;124976;1102;104207;-79
2021/08/03 11:00:07;;;;;;;8.57;4.00;;;;;;;26.64;52.49;100538.63;124808;1105;104200;-78
2021/08/03 11:02:51;;;;;;;8.43;3.37;;;;;;;26.66;50.89;100532.31;125016;1102;117891;-78
2021/08/03 11:05:34;;;;;;;6.30;3.90;;;;;;;26.66;50.18;100536.79;124884;1103;104722;-76
2021/08/03 11:08:42;;;;;;;11.23;3.80;;;;;;;26.64;50.06;100523.34;125057;1102;104309;-76
2021/08/03 11:11:27;;;;;;;6.43;3.53;;;;;;;26.66;50.26;100526.92;125045;1102;104167;-76
2021/08/03 11:14:10;;;;;;;4.47;3.37;;;;;;;26.63;50.53;100516.22;124872;1102;104318;-77
2021/08/03 11:16:58;;;;;;;7.87;4.00;;;;;;;26.63;49.68;100513.53;125121;1102;104360;-75
2021/08/03 11:20:13;;;;;;;7.03;3.80;;;;;;;26.63;50.43;100504.55;125141;1102;104184;-76
2021/08/03 11:23:01;;;;;;;7.23;3.90;;;;;;;26.64;50.53;100507.20;125002;1102;104284;-76
2021/08/03 11:25:47;;;;;;;;;;;;;;;;;;;;;
2021/08/03 11:28:57;;;;;;;9.50;3.80;;;;;;;26.68;49.70;100505.34;125074;1102;104190;-76
2021/08/03 11:31:58;;;;;;;6.37;3.40;;;;;;;26.69;49.60;100504.40;124978;1103;104210;-75
2021/08/03 11:34:34;;;;;;;7.43;3.50;;;;;;;26.73;49.63;100492.62;124894;1102;104345;-75
2021/08/03 11:37:19;;;;;;;9.50;4.70;;;;;;;26.79;50.16;100500.50;124847;1102;104176;-78
2021/08/03 11:39:56;;;;;;;15.23;4.50;;;;;;;26.86;49.86;100495.80;124701;1102;104781;-75
2021/08/03 11:42:42;;;;;;;6.57;4.10;;;;;;;26.98;49.96;100498.09;124938;1102;104274;-77
2021/08/03 11:45:21;;;;;;;7.87;3.63;;;;;;;27.04;49.96;100481.74;125160;1102;104348;-75
2021/08/03 11:47:54;;;;;;;10.70;4.17;;;;;;;27.06;49.95;100479.00;125007;1102;104470;-76
2021/08/03 11:50:40;;;;;;;6.40;3.08;;;;;;;27.05;48.95;100482.61;124931;1102;104683;-76
2021/08/03 11:53:26;;;;;;;9.70;3.20;;;;;;;27.04;48.78;100488.95;124842;1106;104302;-76
2021/08/03 11:55:58;;;;;;;7.07;3.17;;;;;;;27.04;49.02;100486.26;125000;1103;104424;-77
2021/08/03 11:58:34;;;;;;;8.88;3.10;;;;;;;27.02;49.33;100480.92;124891;1105;104900;-79
2021/08/03 12:01:12;;;;;;;3.67;3.00;;;;;;;27.01;49.36;100478.28;125184;1102;104373;-78
2021/08/03 12:03:57;;;;;;;4.63;2.97;;;;;;;27.00;49.02;100474.68;125186;1102;104207;-78
2021/08/03 12:06:39;;;;;;;6.63;3.23;;;;;;;27.02;48.43;100471.94;125245;1102;104145;-76
2021/08/03 12:09:18;;;;;;;6.90;3.00;;;;;;;26.84;48.40;100473.44;125262;1102;104144;-76
2021/08/03 12:12:02;;;;;;;6.57;3.70;;;;;;;26.86;48.13;100472.44;125201;1102;104246;-78
2021/08/03 12:14:37;;;;;;;7.87;3.60;;;;;;;26.95;48.68;100476.66;125230;1102;108164;-77
2021/08/03 12:17:29;;;;;;;7.70;3.47;;;;;;;27.12;48.84;100481.48;125257;1102;104303;-77
2021/08/03 12:20:30;;;;;;;8.10;3.27;;;;;;;27.19;48.25;100476.77;125166;1102;104251;-75
2021/08/03 12:23:17;;;;;;;9.17;3.30;;;;;;;27.22;48.10;100482.05;125431;1099;104201;-77
2021/08/03 12:26:11;;;;;;;9.30;3.63;;;;;;;27.09;47.96;100482.45;125262;1099;104255;-77
2021/08/03 12:28:55;;;;;;;6.43;3.07;;;;;;;27.05;48.01;100480.82;125484;1099;104313;-78
2021/08/03 12:31:43;;;;;;;5.80;2.90;;;;;;;26.92;48.15;100484.83;125208;1099;104208;-76
2021/08/03 12:34:26;;;;;;;6.67;3.10;;;;;;;26.83;48.10;100475.27;125273;1099;104175;-78
2021/08/03 12:37:12;;;;;;;6.03;3.40;;;;;;;26.84;48.40;100468.05;125229;1099;104251;-77
2021/08/03 12:39:48;;;;;;;10.48;3.40;;;;;;;26.86;48.80;100472.44;125255;1099;104182;-77
2021/08/03 12:42:53;;;;;;;5.57;3.13;;;;;;;26.80;47.74;100479.84;125226;1099;104315;-76
2021/08/03 12:45:35;;;;;;;4.70;2.80;;;;;;;26.88;47.74;100478.67;125424;1100;104185;-76
2021/08/03 12:48:12;;;;;;;;;;;;;;;26.96;46.25;100478.42;125263;1102;105531;-75
2021/08/03 12:50:53;;;;;;;3.63;2.67;;;;;;;27.00;47.13;100473.81;125314;1102;104239;-78
2021/08/03 12:53:49;;;;;;;4.92;2.58;;;;;;;27.02;46.58;100471.94;125194;1102;104719;-77
2021/08/03 12:56:46;;;;;;;4.37;2.50;;;;;;;27.04;46.96;100472.79;124980;1102;104200;-77
2021/08/03 12:59:39;;;;;;;4.47;2.90;;;;;;;27.01;46.85;100486.36;125299;1102;104264;-77
2021/08/03 13:02:17;;;;;;;5.43;2.50;;;;;;;27.00;46.60;100490.84;125113;1102;104368;-76
2021/08/03 13:04:51;;;;;;;4.53;2.83;;;;;;;27.00;46.67;100481.89;125252;1102;105125;-76
2021/08/03 13:07:35;;;;;;;4.27;2.80;;;;;;;27.02;46.79;100472.84;125306;1102;104373;-77
2021/08/03 13:10:17;;;;;;;9.43;2.80;;;;;;;27.03;46.75;100466.50;125233;1102;104242;-79
2021/08/03 13:13:02;;;;;;;3.45;2.70;;;;;;;27.08;47.00;100478.03;125294;1102;104207;-78
2021/08/03 13:15:38;;;;;;;5.07;2.77;;;;;;;27.02;46.69;100485.41;125116;1102;104155;-76
2021/08/03 13:18:17;;;;;;;6.30;2.90;;;;;;;27.01;46.86;100491.74;125114;1102;104287;-76
2021/08/03 13:20:48;;;;;;;6.87;3.30;;;;;;;26.90;46.96;100489.39;125214;1099;104272;-78
2021/08/03 13:27:05;;;;;;;5.23;2.90;;;;;;;26.82;47.12;100481.56;125011;1102;104169;-76
2021/08/03 13:33:07;;;;;;;2.57;2.30;;;;;;;26.97;45.95;100490.94;125210;1102;104306;-78
2021/08/03 13:35:41;;;;;;;3.13;2.60;;;;;;;26.99;46.17;100493.58;125179;1102;104172;-77
2021/08/03 13:38:22;;;;;;;3.60;2.80;;;;;;;27.00;46.00;100481.89;125189;1102;104201;-78
2021/08/03 13:40:55;;;;;;;4.20;2.47;;;;;;;26.96;46.35;100485.60;125281;1102;104187;-76
2021/08/03 13:43:40;;;;;;;3.70;2.70;;;;;;;26.94;45.75;100482.09;125186;1102;104271;-76
2021/08/03 13:46:31;;;;;;;5.10;2.57;;;;;;;26.92;46.01;100478.58;124993;1102;104306;-77
2021/08/03 13:49:13;;;;;;;4.63;2.90;;;;;;;26.93;45.75;100485.70;125204;1102;104153;-76
2021/08/03 13:51:58;;;;;;;3.43;2.73;;;;;;;26.96;45.94;100485.60;125220;1102;105035;-75
2021/08/03 13:54:35;;;;;;;5.17;2.63;;;;;;;26.91;46.25;100480.37;125276;1102;104450;-77
2021/08/03 13:57:21;;;;;;;3.03;2.70;;;;;;;26.90;45.75;100474.11;125166;1102;108627;-75
2021/08/03 13:59:56;;;;;;;3.40;3.00;;;;;;;26.92;46.20;100482.14;125264;1102;104197;-75
2021/08/03 14:02:31;;;;;;;4.33;2.80;;;;;;;26.92;45.91;100473.20;125170;1102;104287;-75
2021/08/03 14:05:13;;;;;;;4.87;2.80;;;;;;;26.95;46.41;100465.02;125207;1102;104421;-78
2021/08/03 14:07:49;;;;;;;6.37;2.63;;;;;;;26.92;46.10;100462.42;125289;1102;104366;-76
2021/08/03 14:10:25;;;;;;;2.93;2.53;;;;;;;26.80;46.58;100443.06;125186;1099;104249;-75
2021/08/03 14:12:59;;;;;;;4.17;2.70;;;;;;;26.88;46.45;100458.93;125089;1098;104923;-76
2021/08/03 14:15:33;;;;;;;4.33;2.50;;;;;;;26.90;46.37;100466.03;125113;1102;104248;-78
2021/08/03 14:18:21;;;;;;;3.40;2.60;;;;;;;26.90;46.08;100466.03;125118;1102;104328;-77
2021/08/03 14:20:53;;;;;;;6.27;2.90;;;;;;;26.85;45.84;100477.91;125146;1099;104143;-77
2021/08/03 14:23:27;;;;;;;4.37;2.40;;;;;;;26.79;46.11;100472.72;125159;1099;104578;-77
2021/08/03 14:26:03;;;;;;;4.40;2.47;;;;;;;26.77;45.82;100466.48;125193;1102;104195;-75
2021/08/03 14:28:42;;;;;;;5.63;2.77;;;;;;;26.73;45.91;100460.33;125162;1102;118625;-76
2021/08/03 14:31:22;;;;;;;4.17;2.37;;;;;;;26.72;45.61;100464.84;125082;1102;104274;-76
2021/08/03 14:33:58;;;;;;;5.03;2.50;;;;;;;26.68;45.67;100467.67;125250;1102;104473;-77
2021/08/03 14:36:31;;;;;;;6.43;2.87;;;;;;;26.63;45.57;100467.78;125131;1102;104275;-75
2021/08/03 14:39:05;;;;;;;6.37;2.73;;;;;;;26.62;46.21;100466.01;125295;1102;104331;-79
2021/08/03 14:41:39;;;;;;;3.50;2.67;;;;;;;26.62;46.03;100460.63;125214;1102;104214;-76
2021/08/03 14:44:12;;;;;;;5.33;3.20;;;;;;;26.60;46.71;100472.36;125159;1102;104175;-77
2021/08/03 14:46:44;;;;;;;5.53;2.87;;;;;;;26.57;46.70;100477.84;125068;1102;104300;-77
2021/08/03 14:49:15;;;;;;;7.57;2.80;;;;;;;26.52;46.95;100470.81;125091;1102;109439;-77
2021/08/03 14:51:46;;;;;;;4.73;2.30;;;;;;;26.49;46.34;100472.69;125113;1102;104149;-79
2021/08/03 14:54:24;;;;;;;2.60;2.40;;;;;;;26.44;46.79;100477.34;125107;1100;104242;-77
2021/08/03 14:56:55;;;;;;;2.77;2.57;;;;;;;26.36;46.43;100467.68;125149;1102;104181;-77
2021/08/03 14:59:29;;;;;;;3.20;2.40;;;;;;;26.32;46.87;100459.78;125193;1099;104278;-76
2021/08/03 15:02:00;;;;;;;3.60;2.80;;;;;;;26.28;46.93;100474.23;125177;1099;104178;-77
2021/08/03 15:04:38;;;;;;;10.40;2.93;;;;;;;26.23;46.51;100468.13;125206;1099;104156;-77
2021/08/03 15:07:14;;;;;;;3.83;2.80;;;;;;;26.17;46.43;100461.11;125017;1099;104143;-76
2021/08/03 15:09:51;;;;;;;5.10;2.75;;;;;;;26.13;46.44;100471.09;125068;1102;107111;-77
2021/08/03 15:12:22;;;;;;;7.87;2.70;;;;;;;26.13;46.32;100465.70;125146;1102;104239;-77
2021/08/03 15:14:55;;;;;;;3.37;2.47;;;;;;;26.13;46.74;100463.02;125098;1099;104172;-77
2021/08/03 15:17:27;;;;;;;6.83;3.00;;;;;;;26.06;46.67;100450.66;125146;1099;104319;-78
2021/08/03 15:20:00;;;;;;;3.37;2.60;;;;;;;26.13;46.64;100451.36;125115;1102;104169;-76
2021/08/03 15:22:33;;;;;;;5.03;2.70;;;;;;;26.14;46.55;100461.20;125171;1102;104195;-76
2021/08/03 15:25:09;;;;;;;4.37;2.98;;;;;;;26.14;46.42;100469.27;125138;1102;104223;-78
2021/08/03 15:27:40;;;;;;;4.00;2.80;;;;;;;26.15;46.80;100469.22;125126;1102;104146;-77
2021/08/03 15:30:12;;;;;;;4.07;2.73;;;;;;;26.12;46.99;100468.44;125122;1099;104147;-77
2021/08/03 15:32:44;;;;;;;;;;;;;;;26.10;46.49;100473.86;125238;1099;104245;-78
2021/08/03 15:35:19;;;;;;;6.33;3.13;;;;;;;26.07;46.18;100473.95;125142;1099;104271;-78
2021/08/03 15:37:52;;;;;;;6.10;2.73;;;;;;;26.03;46.60;100474.95;125177;1099;104778;-77
2021/08/03 15:40:25;;;;;;;3.40;2.47;;;;;;;26.00;46.40;100465.16;125120;1102;110372;-75
2021/08/03 15:42:59;;;;;;;3.67;2.93;;;;;;;25.97;46.99;100476.00;125173;1102;104146;-76
2021/08/03 15:45:30;;;;;;;6.70;2.50;;;;;;;25.93;46.89;100468.03;125241;1101;104276;-77
2021/08/03 15:48:04;;;;;;;6.50;3.10;;;;;;;25.92;46.82;100471.66;125180;1102;104172;-77
2021/08/03 15:50:38;;;;;;;7.23;2.90;;;;;;;25.92;46.80;100475.22;125146;1099;104219;-78
2021/08/03 15:53:11;;;;;;;10.70;4.08;;;;;;;25.92;47.07;100468.98;125201;1102;104150;-77
2021/08/03 15:55:42;;;;;;;7.87;2.90;;;;;;;25.91;46.70;100451.08;125220;1102;104158;-77
2021/08/03 15:58:13;;;;;;;7.40;2.87;;;;;;;25.91;46.58;100459.14;125252;1099;104329;-78
2021/08/03 16:00:44;;;;;;;3.77;2.60;;;;;;;25.92;46.25;100464.47;125188;1102;104214;-77
2021/08/03 16:03:17;;;;;;;3.53;2.50;;;;;;;25.98;46.70;100484.97;125248;1102;104181;-79
2021/08/03 16:05:48;;;;;;;5.67;2.60;;;;;;;26.00;46.53;100477.73;125227;1102;104166;-78
2021/08/03 16:08:20;;;;;;;5.03;2.80;;;;;;;25.97;46.34;100477.78;125224;1100;104195;-79
2021/08/03 16:10:50;;;;;;;3.93;2.70;;;;;;;25.93;46.56;100481.47;126084;1099;118177;-79
2021/08/03 16:13:21;;;;;;;6.77;2.80;;;;;;;25.90;46.38;100473.49;125166;1099;104402;-79
2021/08/03 16:16:01;;;;;;;9.43;2.90;;;;;;;25.85;46.63;100465.56;126309;1099;104222;-79
2021/08/03 16:18:44;;;;;;;5.87;2.93;;;;;;;25.81;46.50;100461.21;125280;1099;104182;-78
2021/08/03 16:21:18;;;;;;;5.42;2.60;;;;;;;25.75;46.67;100456.88;125243;1099;104175;-79
2021/08/03 16:23:51;;;;;;;3.42;2.70;;;;;;;25.70;46.64;100461.52;125257;1099;104146;-78
2021/08/03 16:26:25;;;;;;;6.50;2.90;;;;;;;25.69;46.84;100461.55;125229;1099;104146;-78
2021/08/03 16:28:59;;;;;;;8.03;3.40;;;;;;;25.67;46.94;100476.84;125236;1099;104242;-79
2021/08/03 16:31:36;;;;;;;8.00;3.03;;;;;;;25.62;46.85;100479.66;125416;1099;111587;-78
2021/08/03 16:34:12;;;;;;;6.00;2.60;;;;;;;25.57;47.11;100494.99;125315;1097;104271;-78
2021/08/03 16:36:46;;;;;;;6.73;2.90;;;;;;;25.48;46.77;100498.83;125213;1099;104191;-79
2021/08/03 16:39:18;;;;;;;6.83;3.13;;;;;;;25.43;46.79;100504.31;126282;1099;104185;-79
2021/08/03 16:41:52;;;;;;;8.70;3.13;;;;;;;25.38;47.24;100510.72;125169;1099;104152;-79
2021/08/03 16:44:31;;;;;;;10.93;3.80;;;;;;;25.31;46.95;100510.00;125187;1099;104331;-77
2021/08/03 16:47:02;;;;;;;5.83;3.00;;;;;;;25.26;46.99;100501.15;125287;1099;104245;-79
2021/08/03 16:49:35;;;;;;;9.43;3.00;;;;;;;25.19;47.12;100488.79;125191;1099;104175;-78
2021/08/03 16:52:14;;;;;;;6.73;3.20;;;;;;;25.14;47.74;100501.45;125166;1100;109418;-78
2021/08/03 16:54:50;;;;;;;13.13;3.40;;;;;;;25.06;47.66;100496.27;125134;1099;104155;-78
2021/08/03 16:57:22;;;;;;;5.37;3.10;;;;;;;25.01;47.86;100501.75;125159;1100;104251;-78
2021/08/03 16:59:54;;;;;;;8.50;3.43;;;;;;;24.97;48.12;100508.09;125150;1099;104163;-78
2021/08/03 17:02:36;;;;;;;6.23;3.33;;;;;;;24.94;48.20;100510.85;125195;1099;119002;-78
2021/08/03 17:05:27;;;;;;;6.37;3.83;;;;;;;24.86;48.02;100511.03;125161;1099;104672;-78
2021/08/03 17:08:13;;;;;;;10.93;3.57;;;;;;;24.83;48.80;100512.91;125245;1102;104152;-79
2021/08/03 17:10:56;;;;;;;9.60;3.90;;;;;;;24.75;48.84;100505.04;125197;1099;104207;-78
2021/08/03 17:13:47;;;;;;;5.23;3.40;;;;;;;24.68;48.94;100506.08;125176;1102;104197;-78
2021/08/03 17:16:29;;;;;;;6.33;3.57;;;;;;;24.62;49.19;100503.53;125185;1099;104213;-78
2021/08/03 17:19:04;;;;;;;10.87;3.70;;;;;;;24.56;49.56;100505.41;125151;1099;104570;-78
2021/08/03 17:21:49;;;;;;;8.73;3.70;;;;;;;24.51;49.49;100498.37;125348;1100;104210;-78
2021/08/03 17:24:33;;;;;;;7.20;3.73;;;;;;;24.45;49.87;100507.45;125181;1099;104675;-79
2021/08/03 17:27:07;;;;;;;11.97;3.73;;;;;;;24.40;50.48;100503.97;125233;1099;104198;-78
2021/08/03 17:29:41;;;;;;;7.33;3.53;;;;;;;24.35;50.59;100511.23;125266;1099;104210;-78
2021/08/03 17:32:16;;;;;;;8.70;4.17;;;;;;;24.29;50.59;100512.23;125151;1102;104649;-79
2021/08/03 17:34:50;;;;;;;8.67;3.97;;;;;;;24.21;50.81;100511.52;125204;1099;104448;-78
2021/08/03 17:37:25;;;;;;;11.13;4.10;;;;;;;24.16;51.11;100500.89;125229;1099;104194;-78
2021/08/03 17:40:06;;;;;;;12.87;5.00;;;;;;;24.13;51.46;100510.80;125234;1099;104223;-78
2021/08/03 17:42:47;;;;;;;15.33;4.73;;;;;;;24.06;51.52;100504.69;125102;1099;104201;-77
2021/08/03 17:45:31;;;;;;;13.27;4.43;;;;;;;23.98;51.75;100499.48;125163;1099;104368;-77
2021/08/03 17:48:32;;;;;;;12.60;4.70;;;;;;;23.90;52.20;100504.09;125185;1099;104608;-79
2021/08/03 17:51:23;;;;;;;17.47;4.97;;;;;;;23.83;52.27;100497.94;125176;1099;104223;-78
2021/08/03 17:53:59;;;;;;;16.33;4.47;;;;;;;23.77;52.60;100500.73;125180;1102;104192;-78
2021/08/03 17:56:32;;;;;;;14.67;4.13;;;;;;;23.73;53.00;100492.78;126266;1099;104137;-79
2021/08/03 17:59:13;;;;;;;16.53;5.03;;;;;;;23.67;53.17;100502.70;125224;1102;104140;-77
2021/08/03 18:02:06;;;;;;;14.13;4.40;;;;;;;23.63;53.04;100498.30;125263;1102;105578;-79
2021/08/03 18:07:56;;;;;;;14.07;4.60;;;;;;;23.53;53.88;100507.44;125053;1103;104459;-78
2021/08/03 18:10:29;;;;;;;14.70;4.60;;;;;;;23.49;54.03;100511.07;125263;1102;104265;-78
2021/08/03 18:13:20;;;;;;;14.53;4.90;;;;;;;23.47;54.39;100521.80;125151;1102;104338;-79
2021/08/03 18:15:55;;;;;;;17.30;5.13;;;;;;;23.44;54.47;100523.66;125013;1102;104146;-79
2021/08/03 18:18:34;;;;;;;18.47;4.73;;;;;;;23.42;54.78;100523.69;125250;1102;104146;-79
2021/08/03 18:21:11;;;;;;;15.30;4.67;;;;;;;23.41;54.81;100537.10;125038;1102;104181;-78
2021/08/03 18:23:51;;;;;;;14.53;4.77;;;;;;;23.36;55.11;100523.80;125019;1102;104252;-79
2021/08/03 18:26:36;;;;;;;17.00;4.90;;;;;;;23.33;55.12;100534.55;125250;1101;104191;-78
2021/08/03 18:29:34;;;;;;;12.37;4.60;;;;;;;23.27;55.02;100538.20;125162;1102;104277;-79
2021/08/03 18:32:08;;;;;;;17.07;5.30;;;;;;;23.22;55.35;100547.20;125186;1102;104249;-78
2021/08/03 18:34:50;;;;;;;10.83;4.73;;;;;;;23.20;56.14;100546.35;125275;1102;104198;-78
2021/08/03 18:37:31;;;;;;;17.60;5.13;;;;;;;23.15;56.62;100558.03;125305;1102;104161;-79
2021/08/03 18:40:14;;;;;;;15.37;5.40;;;;;;;23.12;56.58;100560.76;125217;1102;104187;-77
2021/08/03 18:42:50;;;;;;;16.13;5.10;;;;;;;23.11;56.69;100568.81;125201;1102;104191;-79
2021/08/03 18:45:25;;;;;;;12.20;5.53;;;;;;;23.08;57.43;100567.05;125227;1099;104608;-78
2021/08/03 18:48:02;;;;;;;18.67;5.73;;;;;;;23.04;57.57;100567.95;125223;1099;104248;-79
2021/08/03 18:50:37;;;;;;;16.77;5.70;;;;;;;23.02;57.72;100567.11;125215;1099;104306;-77
2021/08/03 18:53:08;;;;;;;24.40;5.97;;;;;;;23.01;57.51;100570.68;125420;1099;105482;-78
2021/08/03 18:55:48;;;;;;;19.90;6.00;;;;;;;23.02;58.13;100576.94;125216;1102;104256;-78
2021/08/03 18:58:22;;;;;;;21.10;6.33;;;;;;;23.00;58.14;100576.95;126310;1099;104297;-78
2021/08/03 19:01:01;;;;;;;19.33;6.30;;;;;;;22.96;58.16;100576.09;125223;1099;104204;-78
2021/08/03 19:03:32;;;;;;;16.73;6.00;;;;;;;22.96;58.80;100578.77;125915;1099;105470;-79
2021/08/03 19:06:19;;;;;;;14.67;5.90;;;;;;;22.94;59.00;100580.59;125207;1099;104319;-78
2021/08/03 19:09:06;;;;;;;20.70;6.37;;;;;;;22.92;58.72;100573.48;125221;1099;104222;-79
2021/08/03 19:11:46;;;;;;;14.87;5.93;;;;;;;22.91;58.17;100580.64;125214;1099;104252;-79
2021/08/03 19:14:29;;;;;;;20.40;6.07;;;;;;;22.87;58.96;100584.25;125169;1099;104245;-78
2021/08/03 19:17:04;;;;;;;22.60;7.07;;;;;;;22.80;58.92;100580.78;125233;1099;104149;-79
2021/08/03 19:19:45;;;;;;;22.87;7.60;;;;;;;22.73;59.00;100580.88;126302;1099;104700;-79
2021/08/03 19:22:21;;;;;;;19.62;7.70;;;;;;;22.69;59.25;100576.47;125211;1099;104235;-79
2021/08/03 19:24:55;;;;;;;17.33;6.93;;;;;;;22.65;59.73;100580.11;125415;1099;104287;-80
2021/08/03 19:27:37;;;;;;;23.27;6.90;;;;;;;22.63;59.51;100581.93;125214;1099;104149;-78
2021/08/03 19:30:14;;;;;;;17.00;6.60;;;;;;;22.61;60.12;100579.27;125213;1099;104198;-79
2021/08/03 19:32:54;;;;;;;20.00;7.20;;;;;;;22.57;60.12;100583.75;125220;1100;104184;-78
2021/08/03 19:35:33;;;;;;;17.93;7.17;;;;;;;22.52;60.23;100588.28;125165;1099;104245;-78
2021/08/03 19:38:08;;;;;;;15.27;6.47;;;;;;;22.45;59.97;100594.59;125242;1099;104153;-78
2021/08/03 19:40:41;;;;;;;17.67;6.83;;;;;;;22.40;60.36;100591.09;125238;1099;104165;-78
2021/08/03 19:43:12;;;;;;;27.05;8.38;;;;;;;22.37;60.66;100591.13;125239;1099;104309;-79
2021/08/03 19:45:48;;;;;;;19.47;7.20;;;;;;;22.33;60.70;100600.98;126096;1099;104147;-78
2021/08/03 19:48:22;;;;;;;18.00;6.90;;;;;;;22.30;61.95;100600.08;125411;1100;104147;-78
2021/08/03 19:50:57;;;;;;;17.60;6.70;;;;;;;22.29;61.56;100606.34;126299;1099;104149;-78
2021/08/03 19:53:40;;;;;;;17.13;6.90;;;;;;;22.23;61.62;100610.84;125220;1099;104236;-78
2021/08/03 19:56:12;;;;;;;21.10;6.97;;;;;;;22.25;61.79;100616.16;125146;1099;119244;-79
2021/08/03 19:58:46;;;;;;;21.07;7.10;;;;;;;22.25;62.55;100617.07;125205;1099;104325;-79
2021/08/03 20:01:20;;;;;;;18.53;7.47;;;;;;;22.20;62.12;100612.66;125284;1099;104341;-80
2021/08/03 20:04:00;;;;;;;18.57;6.90;;;;;;;22.18;62.31;100610.01;125129;1099;104190;-79
2021/08/03 20:06:36;;;;;;;21.83;6.70;;;;;;;22.16;62.50;100609.15;125320;1099;104213;-78
2021/08/03 20:09:16;;;;;;;18.23;6.83;;;;;;;22.13;62.15;100608.27;125225;1099;104248;-80
2021/08/03 20:11:50;;;;;;;16.80;6.67;;;;;;;22.12;62.92;100607.39;125108;1099;104216;-79
2021/08/03 20:14:28;;;;;;;20.33;6.90;;;;;;;22.11;62.42;100602.98;125270;1099;104576;-80
2021/08/03 20:17:06;;;;;;;19.33;8.00;;;;;;;22.11;63.24;100605.65;125384;1099;109492;-79
2021/08/03 20:19:39;;;;;;;20.10;7.40;;;;;;;22.04;63.23;100611.94;125243;1099;104230;-78
2021/08/03 20:22:11;;;;;;;18.70;6.73;;;;;;;22.00;63.59;100607.52;126326;1099;104143;-78
2021/08/03 20:24:49;;;;;;;17.53;7.10;;;;;;;21.95;63.53;100620.05;125236;1099;104367;-78
2021/08/03 20:27:32;;;;;;;18.77;7.50;;;;;;;21.92;63.67;100612.05;125181;1099;104155;-79
2021/08/03 20:30:07;;;;;;;19.50;7.13;;;;;;;21.88;63.33;100614.75;125282;1099;104149;-79
2021/08/03 20:32:51;;;;;;;18.33;7.17;;;;;;;21.85;64.12;100616.58;125228;1099;104149;-80
2021/08/03 20:35:28;;;;;;;21.87;7.58;;;;;;;21.77;63.90;100619.31;125264;1099;105405;-78
2021/08/03 20:38:04;;;;;;;18.30;7.70;;;;;;;21.71;63.55;100614.90;125193;1100;104303;-79
2021/08/03 20:40:38;;;;;;;21.87;7.13;;;;;;;21.71;64.59;100616.70;125281;1099;104207;-80
2021/08/03 20:43:13;;;;;;;18.27;7.00;;;;;;;21.65;63.72;100625.62;125313;1099;104299;-79
2021/08/03 20:45:47;;;;;;;18.75;7.92;;;;;;;21.59;63.64;100615.00;125269;1099;104145;-80
2021/08/03 20:48:19;;;;;;;20.50;7.90;;;;;;;21.51;63.82;100612.38;125206;1099;104248;-78
2021/08/03 20:50:51;;;;;;;18.57;7.27;;;;;;;21.47;64.73;100623.06;125216;1099;104267;-78
2021/08/03 20:53:24;;;;;;;23.53;8.10;;;;;;;21.46;64.85;100618.64;125206;1099;104144;-79
2021/08/03 20:55:55;;;;;;;20.00;8.13;;;;;;;21.42;64.95;100625.77;125366;1099;104255;-78
2021/08/03 20:58:27;;;;;;;21.00;7.63;;;;;;;21.41;64.29;100620.44;126378;1099;104143;-79
2021/08/03 21:01:04;;;;;;;17.70;7.50;;;;;;;21.39;64.72;100623.11;126340;1099;104194;-78
2021/08/03 21:03:45;;;;;;;18.03;7.67;;;;;;;21.36;64.60;100618.70;125167;1099;104152;-79
2021/08/03 21:06:20;;;;;;;20.33;7.40;;;;;;;21.31;65.32;100619.63;125145;1099;104222;-79
2021/08/03 21:08:53;;;;;;;19.77;8.53;;;;;;;21.26;64.80;100616.11;125197;1099;104161;-78
2021/08/03 21:11:24;;;;;;;20.43;8.50;;;;;;;21.21;64.93;100615.23;125240;1099;104685;-79
2021/08/03 21:13:56;;;;;;;19.43;7.37;;;;;;;21.14;65.98;100620.59;125202;1100;104162;-79
2021/08/03 21:16:44;;;;;;;22.10;8.03;;;;;;;21.06;65.80;100619.77;125226;1099;104252;-78
2021/08/03 21:19:34;;;;;;;19.67;8.20;;;;;;;20.98;66.31;100626.94;126308;1099;104150;-79
2021/08/03 21:22:24;;;;;;;24.40;8.35;;;;;;;20.94;66.59;100625.16;125228;1099;104641;-80
2021/08/03 21:25:16;;;;;;;17.97;8.87;;;;;;;20.89;66.47;100624.31;125262;1099;104165;-78
2021/08/03 21:28:05;;;;;;;20.97;9.10;;;;;;;20.87;66.87;100621.65;125341;1099;104299;-79
2021/08/03 21:30:53;;;;;;;19.23;8.10;;;;;;;20.85;66.63;100622.54;125167;1100;104188;-78
2021/08/03 21:33:45;;;;;;;21.43;8.40;;;;;;;20.83;66.76;100615.45;125234;1099;104306;-79
2021/08/03 21:36:36;;;;;;;16.27;7.97;;;;;;;20.81;66.12;100613.67;125348;1099;104258;-79
2021/08/03 21:39:25;;;;;;;19.00;8.17;;;;;;;20.77;66.92;100622.57;125241;1099;104147;-79
2021/08/03 21:42:15;;;;;;;18.93;8.00;;;;;;;20.73;67.49;100613.70;125205;1099;104291;-78
2021/08/03 21:45:05;;;;;;;16.20;8.27;;;;;;;20.73;67.25;100612.84;126294;1099;104149;-79
2021/08/03 21:47:53;;;;;;;21.27;8.60;;;;;;;20.78;67.33;100617.23;125235;1099;104149;-79
2021/08/03 21:50:45;;;;;;;21.27;8.23;;;;;;;20.79;67.92;100613.69;125275;1099;104182;-78
2021/08/03 21:53:16;;;;;;;21.00;8.37;;;;;;;20.75;68.12;100609.25;125208;1099;104146;-78
2021/08/03 21:55:47;;;;;;;17.33;8.57;;;;;;;20.70;67.00;100605.72;125245;1099;104243;-80
2021/08/03 21:58:19;;;;;;;17.07;8.30;;;;;;;20.64;68.35;100608.38;125167;1099;104370;-81
2021/08/03 22:00:51;;;;;;;23.07;8.77;;;;;;;20.60;68.41;100609.27;125294;1099;104147;-79
2021/08/03 22:03:23;;;;;;;22.00;8.60;;;;;;;20.57;68.62;100599.53;125216;1099;104194;-79
2021/08/03 22:05:54;;;;;;;20.90;8.50;;;;;;;20.60;67.91;100601.28;125290;1099;104153;-79
2021/08/03 22:08:27;;;;;;;19.20;8.00;;;;;;;20.58;68.46;100600.41;125163;1099;104150;-79
2021/08/03 22:10:58;;;;;;;18.03;7.90;;;;;;;20.55;68.57;100603.08;125206;1099;104146;-79
2021/08/03 22:13:30;;;;;;;21.57;7.93;;;;;;;20.50;68.00;100599.55;125229;1099;104165;-79
2021/08/03 22:16:02;;;;;;;17.33;7.43;;;;;;;20.45;68.09;100587.13;125229;1099;104155;-79
2021/08/03 22:18:32;;;;;;;15.63;7.80;;;;;;;20.43;68.49;100590.70;125243;1099;104191;-79
2021/08/03 22:21:04;;;;;;;17.00;7.53;;;;;;;20.42;68.55;100591.58;125248;1099;104249;-80
2021/08/03 22:23:35;;;;;;;15.20;7.37;;;;;;;20.41;68.88;100596.04;125252;1099;104326;-79
2021/08/03 22:26:06;;;;;;;18.70;7.87;;;;;;;20.41;68.89;100596.04;125142;1099;104152;-79
2021/08/03 22:28:37;;;;;;;15.37;7.70;;;;;;;20.41;68.42;100596.04;125244;1099;104201;-79